Garcia Miguel — CUGT9 — position and weather

sailwx.info

Track history (hours):
 
Tides and Currents Weather Stations Pressure Air Temp Water Temp Dewpoint Dewpoint Depression Visibility Wind Speed Wind Dir Waves Ship Positions

Garcia Miguel

Last reported at 2016-May-01 10:17 UTC. Time now 2016-May-05 10:28 UTC.
Position N 38°45' W 023°58'.

Length 20 m.

Type: Fishing. MMSI: 263500286.

Date/timePositionNaut miles runAvg speedWind from/ knotsBaromVisibWave heightAir tempDewpointWater temp
2016-May-01 10:17N 38°45' W 023°58'29 7.2
2016-May-01 06:17N 38°38' W 024°34'6 7.1
2016-May-01 05:27N 38°37' W 024°41'6 7.0
2016-May-01 04:33N 38°36' W 024°49'16 6.8
2016-May-01 02:12N 38°33' W 025°09'4 6.6
2016-May-01 01:33N 38°33' W 025°15'7 6.7
2016-May-01 00:34N 38°32' W 025°23'7 6.9
2016-Apr-30 23:33N 38°30' W 025°32'7 7.1
2016-Apr-30 22:34N 38°28' W 025°41'7 7.1
2016-Apr-30 21:33N 38°27' W 025°49'7 7.1
2016-Apr-30 20:33N 38°25' W 025°58'7 6.9
2016-Apr-30 19:33N 38°23' W 026°07'7 6.9
2016-Apr-30 18:33N 38°22' W 026°15'7 6.7
2016-Apr-30 17:33N 38°20' W 026°24'7 7.0
2016-Apr-30 16:33N 38°18' W 026°32'7 7.0
2016-Apr-30 15:33N 38°17' W 026°41'7 6.6
2016-Apr-30 14:33N 38°16' W 026°49'6 5.9
2016-Apr-30 13:33N 38°20' W 026°54'6 5.7
2016-Apr-30 12:25N 38°26' W 026°52'4 0.5
2016-Apr-30 04:22N 38°30' W 026°50'5 6.0
2016-Apr-30 03:33N 38°25' W 026°48'6 5.7
2016-Apr-30 02:33N 38°20' W 026°46'2 2.1
2016-Apr-30 01:34N 38°18' W 026°47'7 5.0
2016-Apr-30 00:04N 38°25' W 026°50'  
Track history (hours):
 
Tides and Currents Weather Stations Pressure Air Temp Water Temp Dewpoint Dewpoint Depression Visibility Wind Speed Wind Dir Waves Ship Positions

Garcia Miguel

Last reported at 2016-May-01 10:17 UTC. Time now 2016-May-05 10:28 UTC.
Position N 38°45' W 023°58'.

Length 20 m.

Type: Fishing. MMSI: 263500286.

Date/timePositionNaut miles runAvg speedWind from/ knotsBaromVisibWave heightAir tempDewpointWater temp
2016-May-01 10:17N 38°45' W 023°58'29 7.2
2016-May-01 06:17N 38°38' W 024°34'6 7.1
2016-May-01 05:27N 38°37' W 024°41'6 7.0
2016-May-01 04:33N 38°36' W 024°49'16 6.8
2016-May-01 02:12N 38°33' W 025°09'4 6.6
2016-May-01 01:33N 38°33' W 025°15'7 6.7
2016-May-01 00:34N 38°32' W 025°23'7 6.9
2016-Apr-30 23:33N 38°30' W 025°32'7 7.1
2016-Apr-30 22:34N 38°28' W 025°41'7 7.1
2016-Apr-30 21:33N 38°27' W 025°49'7 7.1
2016-Apr-30 20:33N 38°25' W 025°58'7 6.9
2016-Apr-30 19:33N 38°23' W 026°07'7 6.9
2016-Apr-30 18:33N 38°22' W 026°15'7 6.7
2016-Apr-30 17:33N 38°20' W 026°24'7 7.0
2016-Apr-30 16:33N 38°18' W 026°32'7 7.0
2016-Apr-30 15:33N 38°17' W 026°41'7 6.6
2016-Apr-30 14:33N 38°16' W 026°49'6 5.9
2016-Apr-30 13:33N 38°20' W 026°54'6 5.7
2016-Apr-30 12:25N 38°26' W 026°52'4 0.5
2016-Apr-30 04:22N 38°30' W 026°50'5 6.0
2016-Apr-30 03:33N 38°25' W 026°48'6 5.7
2016-Apr-30 02:33N 38°20' W 026°46'2 2.1
2016-Apr-30 01:34N 38°18' W 026°47'7 5.0
2016-Apr-30 00:04N 38°25' W 026°50'  

Dump ship's entire track history